Huvudsida
METAR-TAF:

METAR-TAF

Flygplatser :

Ramsar Airport

Ramsar, Iran

latitud: 36-54N, longitud: 050-40E, höjd: -23 m

Aktuellt väderrapport

Denna rapport gjordes för 53 minuter sedan, klockan 15:00 UTC
Stilla vind
Temperatur 20°C
Fuktighet 78%
Tryck 1024 hPa
Sikt 10 km eller mer
Få moln på en höjd av 2500 ft, Cumulonimbus.
Spridda moln på en höjd av 2700 ft
Mulet på en höjd av 8000 ft

METAR: OINR 271500Z 00000KT 9999 FEW025CB SCT027 OVC080 20/16 Q1024

Tid: 20:23 (15:53 UTC)


TAF: saknas

Aktuella väderrapporter och prognoser från 4000 flygplatser (METAR- och TAF-rapporter).

De tillgängliga stationerna syns som gula och röda prickar på kartan.

För musen över prickarna för att se namnen på stationerna.

Klicka sedan för att få väderrapporter och prognoser.

För att ändra kartan: Klicka på de gröna knapparna med ett svart kors på för att zooma in; den gröna knappen med ett streck på för att zooma ut; eller på de gröna pilarna för angränsande kartor.


METAR-TAF: